sensor_id;sensor_type;location;lat;lon;timestamp;P1;durP1;ratioP1;P2;durP2;ratioP2
63818;SDS011;49970;54.976;73.248;2023-03-17T00:02:14;109.72;;;58.65;;
63818;SDS011;49970;54.976;73.248;2023-03-17T00:04:40;110.05;;;63.22;;
63818;SDS011;49970;54.976;73.248;2023-03-17T00:07:13;112.95;;;63.13;;
63818;SDS011;49970;54.976;73.248;2023-03-17T00:09:41;107.57;;;58.35;;
63818;SDS011;49970;54.976;73.248;2023-03-17T00:12:12;109.45;;;59.63;;
63818;SDS011;49970;54.976;73.248;2023-03-17T00:14:39;104.82;;;61.22;;
63818;SDS011;49970;54.976;73.248;2023-03-17T00:17:17;109.15;;;59.40;;
63818;SDS011;49970;54.976;73.248;2023-03-17T00:19:43;103.78;;;57.65;;
63818;SDS011;49970;54.976;73.248;2023-03-17T00:22:14;103.32;;;59.78;;
63818;SDS011;49970;54.976;73.248;2023-03-17T00:24:42;109.25;;;62.17;;
63818;SDS011;49970;54.976;73.248;2023-03-17T00:27:10;105.32;;;60.60;;
63818;SDS011;49970;54.976;73.248;2023-03-17T00:29:38;100.63;;;62.50;;
63818;SDS011;49970;54.976;73.248;2023-03-17T00:32:08;114.15;;;65.85;;
63818;SDS011;49970;54.976;73.248;2023-03-17T00:34:42;103.95;;;60.03;;
63818;SDS011;49970;54.976;73.248;2023-03-17T00:37:10;116.47;;;64.35;;
63818;SDS011;49970;54.976;73.248;2023-03-17T00:39:40;114.32;;;66.43;;
63818;SDS011;49970;54.976;73.248;2023-03-17T00:42:06;116.43;;;65.65;;
63818;SDS011;49970;54.976;73.248;2023-03-17T00:44:33;116.35;;;64.28;;
63818;SDS011;49970;54.976;73.248;2023-03-17T00:46:59;116.75;;;65.75;;
63818;SDS011;49970;54.976;73.248;2023-03-17T00:49:26;111.55;;;65.25;;
63818;SDS011;49970;54.976;73.248;2023-03-17T00:51:53;115.90;;;66.30;;
63818;SDS011;49970;54.976;73.248;2023-03-17T00:54:20;105.95;;;63.30;;
63818;SDS011;49970;54.976;73.248;2023-03-17T00:56:47;110.05;;;63.45;;
63818;SDS011;49970;54.976;73.248;2023-03-17T01:01:55;115.68;;;64.25;;
63818;SDS011;49970;54.976;73.248;2023-03-17T01:04:31;102.32;;;62.78;;
63818;SDS011;49970;54.976;73.248;2023-03-17T01:06:59;108.18;;;60.70;;
63818;SDS011;49970;54.976;73.248;2023-03-17T01:09:25;107.47;;;61.75;;
63818;SDS011;49970;54.976;73.248;2023-03-17T01:11:53;103.97;;;58.78;;
63818;SDS011;49970;54.976;73.248;2023-03-17T01:14:20;95.03;;;58.40;;
63818;SDS011;49970;54.976;73.248;2023-03-17T01:16:47;96.90;;;58.50;;
63818;SDS011;49970;54.976;73.248;2023-03-17T01:19:14;114.40;;;64.20;;
63818;SDS011;49970;54.976;73.248;2023-03-17T01:21:51;106.70;;;63.15;;
63818;SDS011;49970;54.976;73.248;2023-03-17T01:24:19;111.32;;;65.05;;
63818;SDS011;49970;54.976;73.248;2023-03-17T01:26:45;115.05;;;63.28;;
63818;SDS011;49970;54.976;73.248;2023-03-17T01:29:11;106.35;;;62.88;;
63818;SDS011;49970;54.976;73.248;2023-03-17T01:31:38;109.10;;;61.97;;
63818;SDS011;49970;54.976;73.248;2023-03-17T01:34:04;107.10;;;63.78;;
63818;SDS011;49970;54.976;73.248;2023-03-17T01:36:40;117.47;;;65.78;;
63818;SDS011;49970;54.976;73.248;2023-03-17T01:39:13;112.25;;;69.45;;
63818;SDS011;49970;54.976;73.248;2023-03-17T01:41:39;105.93;;;63.80;;
63818;SDS011;49970;54.976;73.248;2023-03-17T01:44:08;103.95;;;63.45;;
63818;SDS011;49970;54.976;73.248;2023-03-17T01:46:40;122.97;;;67.55;;
63818;SDS011;49970;54.976;73.248;2023-03-17T01:54:50;117.90;;;71.75;;
63818;SDS011;49970;54.976;73.248;2023-03-17T01:57:32;117.63;;;69.97;;
63818;SDS011;49970;54.976;73.248;2023-03-17T02:00:10;122.68;;;72.70;;
63818;SDS011;49970;54.976;73.248;2023-03-17T02:02:40;123.25;;;71.78;;
63818;SDS011;49970;54.976;73.248;2023-03-17T02:05:09;130.32;;;75.03;;
63818;SDS011;49970;54.976;73.248;2023-03-17T02:07:38;124.82;;;75.32;;
63818;SDS011;49970;54.976;73.248;2023-03-17T02:10:06;128.93;;;76.93;;
63818;SDS011;49970;54.976;73.248;2023-03-17T02:12:36;128.82;;;74.63;;
63818;SDS011;49970;54.976;73.248;2023-03-17T02:15:09;136.88;;;82.25;;
63818;SDS011;49970;54.976;73.248;2023-03-17T02:17:37;137.30;;;79.75;;
63818;SDS011;49970;54.976;73.248;2023-03-17T02:22:50;125.65;;;75.72;;
63818;SDS011;49970;54.976;73.248;2023-03-17T02:25:18;130.23;;;77.65;;
63818;SDS011;49970;54.976;73.248;2023-03-17T02:27:52;132.90;;;79.82;;
63818;SDS011;49970;54.976;73.248;2023-03-17T02:30:24;129.63;;;77.57;;
63818;SDS011;49970;54.976;73.248;2023-03-17T02:32:51;135.30;;;76.50;;
63818;SDS011;49970;54.976;73.248;2023-03-17T02:35:20;133.82;;;78.00;;
63818;SDS011;49970;54.976;73.248;2023-03-17T02:37:58;143.82;;;81.50;;
63818;SDS011;49970;54.976;73.248;2023-03-17T02:40:28;147.25;;;85.10;;
63818;SDS011;49970;54.976;73.248;2023-03-17T02:43:04;161.07;;;96.05;;
63818;SDS011;49970;54.976;73.248;2023-03-17T02:45:30;191.10;;;107.85;;
63818;SDS011;49970;54.976;73.248;2023-03-17T02:47:57;199.57;;;118.13;;
63818;SDS011;49970;54.976;73.248;2023-03-17T02:50:24;244.63;;;133.52;;
63818;SDS011;49970;54.976;73.248;2023-03-17T02:52:53;232.13;;;129.57;;
63818;SDS011;49970;54.976;73.248;2023-03-17T02:55:29;251.00;;;156.02;;
63818;SDS011;49970;54.976;73.248;2023-03-17T02:58:06;256.90;;;156.15;;
63818;SDS011;49970;54.976;73.248;2023-03-17T03:00:33;243.68;;;144.38;;
63818;SDS011;49970;54.976;73.248;2023-03-17T03:03:04;249.23;;;155.60;;
63818;SDS011;49970;54.976;73.248;2023-03-17T03:05:40;245.52;;;149.55;;
63818;SDS011;49970;54.976;73.248;2023-03-17T03:08:07;250.63;;;152.52;;
63818;SDS011;49970;54.976;73.248;2023-03-17T03:10:36;251.57;;;156.30;;
63818;SDS011;49970;54.976;73.248;2023-03-17T03:13:07;223.30;;;140.32;;
63818;SDS011;49970;54.976;73.248;2023-03-17T03:15:33;208.70;;;127.15;;
63818;SDS011;49970;54.976;73.248;2023-03-17T03:18:00;220.05;;;132.40;;
63818;SDS011;49970;54.976;73.248;2023-03-17T03:20:26;183.23;;;109.80;;
63818;SDS011;49970;54.976;73.248;2023-03-17T03:23:03;159.23;;;98.78;;
63818;SDS011;49970;54.976;73.248;2023-03-17T03:25:39;129.63;;;75.88;;
63818;SDS011;49970;54.976;73.248;2023-03-17T03:28:05;118.55;;;62.97;;
63818;SDS011;49970;54.976;73.248;2023-03-17T03:30:36;104.35;;;57.20;;
63818;SDS011;49970;54.976;73.248;2023-03-17T03:33:03;92.40;;;52.67;;
63818;SDS011;49970;54.976;73.248;2023-03-17T03:35:39;80.00;;;47.08;;
63818;SDS011;49970;54.976;73.248;2023-03-17T03:38:06;83.53;;;47.97;;
63818;SDS011;49970;54.976;73.248;2023-03-17T03:40:38;77.82;;;42.85;;
63818;SDS011;49970;54.976;73.248;2023-03-17T03:43:04;80.10;;;44.22;;
63818;SDS011;49970;54.976;73.248;2023-03-17T03:45:31;78.70;;;43.38;;
63818;SDS011;49970;54.976;73.248;2023-03-17T03:47:57;84.05;;;45.30;;
63818;SDS011;49970;54.976;73.248;2023-03-17T03:50:24;91.65;;;46.03;;
63818;SDS011;49970;54.976;73.248;2023-03-17T03:52:50;87.35;;;50.80;;
63818;SDS011;49970;54.976;73.248;2023-03-17T03:55:16;77.32;;;43.03;;
63818;SDS011;49970;54.976;73.248;2023-03-17T03:57:49;56.33;;;32.33;;
63818;SDS011;49970;54.976;73.248;2023-03-17T04:00:15;47.03;;;27.42;;
63818;SDS011;49970;54.976;73.248;2023-03-17T04:02:42;36.95;;;22.70;;
63818;SDS011;49970;54.976;73.248;2023-03-17T04:05:12;54.75;;;26.55;;
63818;SDS011;49970;54.976;73.248;2023-03-17T04:07:40;43.85;;;27.48;;
63818;SDS011;49970;54.976;73.248;2023-03-17T04:10:08;42.58;;;25.75;;
63818;SDS011;49970;54.976;73.248;2023-03-17T04:12:43;51.50;;;29.40;;
63818;SDS011;49970;54.976;73.248;2023-03-17T04:15:16;57.97;;;29.33;;
63818;SDS011;49970;54.976;73.248;2023-03-17T04:17:44;67.45;;;35.53;;
63818;SDS011;49970;54.976;73.248;2023-03-17T04:20:16;88.82;;;38.55;;
63818;SDS011;49970;54.976;73.248;2023-03-17T04:22:47;70.47;;;37.45;;
63818;SDS011;49970;54.976;73.248;2023-03-17T04:25:14;61.63;;;33.65;;
63818;SDS011;49970;54.976;73.248;2023-03-17T04:27:41;55.83;;;31.92;;
63818;SDS011;49970;54.976;73.248;2023-03-17T04:30:17;57.30;;;29.50;;
63818;SDS011;49970;54.976;73.248;2023-03-17T04:32:43;36.63;;;22.58;;
63818;SDS011;49970;54.976;73.248;2023-03-17T04:35:11;42.72;;;22.92;;
63818;SDS011;49970;54.976;73.248;2023-03-17T04:37:39;47.88;;;26.40;;
63818;SDS011;49970;54.976;73.248;2023-03-17T04:40:06;71.88;;;29.05;;
63818;SDS011;49970;54.976;73.248;2023-03-17T04:42:36;83.30;;;35.35;;
63818;SDS011;49970;54.976;73.248;2023-03-17T04:45:03;83.72;;;37.22;;
63818;SDS011;49970;54.976;73.248;2023-03-17T04:47:31;81.63;;;34.72;;
63818;SDS011;49970;54.976;73.248;2023-03-17T04:49:57;65.80;;;32.13;;
63818;SDS011;49970;54.976;73.248;2023-03-17T04:52:23;65.03;;;33.03;;
63818;SDS011;49970;54.976;73.248;2023-03-17T04:54:50;51.95;;;29.08;;
63818;SDS011;49970;54.976;73.248;2023-03-17T04:57:16;41.85;;;25.52;;
63818;SDS011;49970;54.976;73.248;2023-03-17T04:59:43;38.20;;;24.55;;
63818;SDS011;49970;54.976;73.248;2023-03-17T05:02:10;35.83;;;20.40;;
63818;SDS011;49970;54.976;73.248;2023-03-17T05:04:36;29.45;;;20.38;;
63818;SDS011;49970;54.976;73.248;2023-03-17T05:07:03;36.53;;;20.73;;
63818;SDS011;49970;54.976;73.248;2023-03-17T05:09:35;37.08;;;22.42;;
63818;SDS011;49970;54.976;73.248;2023-03-17T05:12:01;39.33;;;23.58;;
63818;SDS011;49970;54.976;73.248;2023-03-17T05:14:28;34.50;;;24.55;;
63818;SDS011;49970;54.976;73.248;2023-03-17T05:16:54;37.92;;;23.45;;
63818;SDS011;49970;54.976;73.248;2023-03-17T05:19:30;38.70;;;22.27;;
63818;SDS011;49970;54.976;73.248;2023-03-17T05:21:56;42.30;;;21.45;;
63818;SDS011;49970;54.976;73.248;2023-03-17T05:24:23;40.17;;;19.67;;
63818;SDS011;49970;54.976;73.248;2023-03-17T05:26:49;30.45;;;17.67;;
63818;SDS011;49970;54.976;73.248;2023-03-17T05:29:15;25.23;;;15.85;;
63818;SDS011;49970;54.976;73.248;2023-03-17T05:31:51;12.95;;;10.35;;
63818;SDS011;49970;54.976;73.248;2023-03-17T05:34:28;22.02;;;10.75;;
63818;SDS011;49970;54.976;73.248;2023-03-17T05:36:55;22.27;;;10.73;;
63818;SDS011;49970;54.976;73.248;2023-03-17T05:39:22;18.75;;;10.85;;
63818;SDS011;49970;54.976;73.248;2023-03-17T05:41:48;14.30;;;9.32;;
63818;SDS011;49970;54.976;73.248;2023-03-17T05:44:15;17.58;;;10.07;;
63818;SDS011;49970;54.976;73.248;2023-03-17T05:46:43;18.00;;;8.35;;
63818;SDS011;49970;54.976;73.248;2023-03-17T05:49:20;18.00;;;8.23;;
63818;SDS011;49970;54.976;73.248;2023-03-17T05:51:46;8.43;;;7.13;;
63818;SDS011;49970;54.976;73.248;2023-03-17T05:54:13;11.00;;;6.47;;
63818;SDS011;49970;54.976;73.248;2023-03-17T05:56:49;10.40;;;6.03;;
63818;SDS011;49970;54.976;73.248;2023-03-17T05:59:16;10.93;;;5.32;;
63818;SDS011;49970;54.976;73.248;2023-03-17T06:01:53;7.35;;;5.72;;
63818;SDS011;49970;54.976;73.248;2023-03-17T06:04:20;7.15;;;4.70;;
63818;SDS011;49970;54.976;73.248;2023-03-17T06:06:47;9.38;;;6.47;;
63818;SDS011;49970;54.976;73.248;2023-03-17T06:09:13;8.52;;;5.57;;
63818;SDS011;49970;54.976;73.248;2023-03-17T06:11:40;6.47;;;5.82;;
63818;SDS011;49970;54.976;73.248;2023-03-17T06:14:13;7.57;;;5.65;;
63818;SDS011;49970;54.976;73.248;2023-03-17T06:16:40;10.40;;;6.00;;
63818;SDS011;49970;54.976;73.248;2023-03-17T06:19:06;9.73;;;6.55;;
63818;SDS011;49970;54.976;73.248;2023-03-17T06:21:32;8.02;;;6.93;;
63818;SDS011;49970;54.976;73.248;2023-03-17T06:24:04;11.52;;;6.93;;
63818;SDS011;49970;54.976;73.248;2023-03-17T06:26:37;8.73;;;7.53;;
63818;SDS011;49970;54.976;73.248;2023-03-17T06:29:08;8.35;;;7.07;;
63818;SDS011;49970;54.976;73.248;2023-03-17T06:31:42;17.10;;;7.40;;
63818;SDS011;49970;54.976;73.248;2023-03-17T06:34:18;9.95;;;7.35;;
63818;SDS011;49970;54.976;73.248;2023-03-17T06:36:46;13.20;;;6.70;;
63818;SDS011;49970;54.976;73.248;2023-03-17T06:39:22;11.13;;;6.40;;
63818;SDS011;49970;54.976;73.248;2023-03-17T06:41:49;16.15;;;6.78;;
63818;SDS011;49970;54.976;73.248;2023-03-17T06:44:15;16.80;;;8.60;;
63818;SDS011;49970;54.976;73.248;2023-03-17T06:46:41;17.40;;;7.18;;
63818;SDS011;49970;54.976;73.248;2023-03-17T06:49:07;14.60;;;8.00;;
63818;SDS011;49970;54.976;73.248;2023-03-17T06:51:38;8.82;;;7.13;;
63818;SDS011;49970;54.976;73.248;2023-03-17T06:54:05;17.77;;;8.18;;
63818;SDS011;49970;54.976;73.248;2023-03-17T06:56:33;16.58;;;7.30;;
63818;SDS011;49970;54.976;73.248;2023-03-17T06:58:59;30.98;;;8.48;;
63818;SDS011;49970;54.976;73.248;2023-03-17T07:01:26;17.02;;;8.60;;
63818;SDS011;49970;54.976;73.248;2023-03-17T07:03:53;11.10;;;8.45;;
63818;SDS011;49970;54.976;73.248;2023-03-17T07:06:20;15.48;;;8.55;;
63818;SDS011;49970;54.976;73.248;2023-03-17T07:08:48;17.83;;;8.43;;
63818;SDS011;49970;54.976;73.248;2023-03-17T07:11:15;19.23;;;8.27;;
63818;SDS011;49970;54.976;73.248;2023-03-17T07:13:42;18.80;;;9.50;;
63818;SDS011;49970;54.976;73.248;2023-03-17T07:16:20;24.80;;;9.63;;
63818;SDS011;49970;54.976;73.248;2023-03-17T07:18:51;18.50;;;8.52;;
63818;SDS011;49970;54.976;73.248;2023-03-17T07:21:18;12.38;;;7.75;;
63818;SDS011;49970;54.976;73.248;2023-03-17T07:23:44;15.75;;;8.90;;
63818;SDS011;49970;54.976;73.248;2023-03-17T07:26:10;14.48;;;7.80;;
63818;SDS011;49970;54.976;73.248;2023-03-17T07:28:36;14.15;;;8.20;;
63818;SDS011;49970;54.976;73.248;2023-03-17T07:31:03;18.45;;;8.60;;
63818;SDS011;49970;54.976;73.248;2023-03-17T07:33:32;22.27;;;8.63;;
63818;SDS011;49970;54.976;73.248;2023-03-17T07:35:58;17.98;;;7.88;;
63818;SDS011;49970;54.976;73.248;2023-03-17T07:38:24;31.95;;;8.63;;
63818;SDS011;49970;54.976;73.248;2023-03-17T07:40:51;21.38;;;9.15;;
63818;SDS011;49970;54.976;73.248;2023-03-17T07:43:27;16.58;;;8.02;;
63818;SDS011;49970;54.976;73.248;2023-03-17T07:45:53;19.60;;;9.20;;
63818;SDS011;49970;54.976;73.248;2023-03-17T07:48:24;18.42;;;9.48;;
63818;SDS011;49970;54.976;73.248;2023-03-17T07:50:56;17.27;;;9.05;;
63818;SDS011;49970;54.976;73.248;2023-03-17T07:53:22;19.23;;;9.25;;
63818;SDS011;49970;54.976;73.248;2023-03-17T07:55:58;18.23;;;9.20;;
63818;SDS011;49970;54.976;73.248;2023-03-17T07:58:25;22.35;;;8.60;;
63818;SDS011;49970;54.976;73.248;2023-03-17T08:00:56;13.13;;;8.00;;
63818;SDS011;49970;54.976;73.248;2023-03-17T08:03:33;19.40;;;9.77;;
63818;SDS011;49970;54.976;73.248;2023-03-17T08:05:59;21.20;;;9.43;;
63818;SDS011;49970;54.976;73.248;2023-03-17T08:08:31;19.15;;;9.50;;
63818;SDS011;49970;54.976;73.248;2023-03-17T08:11:01;17.42;;;9.23;;
63818;SDS011;49970;54.976;73.248;2023-03-17T08:13:29;19.33;;;9.73;;
63818;SDS011;49970;54.976;73.248;2023-03-17T08:15:56;18.42;;;10.25;;
63818;SDS011;49970;54.976;73.248;2023-03-17T08:18:23;24.88;;;9.82;;
63818;SDS011;49970;54.976;73.248;2023-03-17T08:20:49;22.00;;;9.90;;
63818;SDS011;49970;54.976;73.248;2023-03-17T08:23:16;19.52;;;9.38;;
63818;SDS011;49970;54.976;73.248;2023-03-17T08:25:43;22.85;;;10.15;;
63818;SDS011;49970;54.976;73.248;2023-03-17T08:28:10;18.27;;;9.65;;
63818;SDS011;49970;54.976;73.248;2023-03-17T08:30:36;14.23;;;8.85;;
63818;SDS011;49970;54.976;73.248;2023-03-17T08:33:03;19.75;;;10.38;;
63818;SDS011;49970;54.976;73.248;2023-03-17T08:35:34;26.65;;;10.98;;
63818;SDS011;49970;54.976;73.248;2023-03-17T08:38:02;23.15;;;10.77;;
63818;SDS011;49970;54.976;73.248;2023-03-17T08:40:29;17.25;;;10.55;;
63818;SDS011;49970;54.976;73.248;2023-03-17T08:42:55;20.05;;;10.82;;
63818;SDS011;49970;54.976;73.248;2023-03-17T08:45:22;19.13;;;10.57;;
63818;SDS011;49970;54.976;73.248;2023-03-17T08:47:48;17.75;;;9.95;;
63818;SDS011;49970;54.976;73.248;2023-03-17T08:50:19;22.98;;;10.70;;
63818;SDS011;49970;54.976;73.248;2023-03-17T08:52:57;17.15;;;10.07;;
63818;SDS011;49970;54.976;73.248;2023-03-17T08:55:33;20.40;;;9.30;;
63818;SDS011;49970;54.976;73.248;2023-03-17T08:58:00;19.65;;;9.52;;
63818;SDS011;49970;54.976;73.248;2023-03-17T09:00:27;15.95;;;10.05;;
63818;SDS011;49970;54.976;73.248;2023-03-17T09:03:03;29.70;;;9.13;;
63818;SDS011;49970;54.976;73.248;2023-03-17T09:05:30;15.77;;;9.27;;
63818;SDS011;49970;54.976;73.248;2023-03-17T09:08:07;19.83;;;9.00;;
63818;SDS011;49970;54.976;73.248;2023-03-17T09:10:34;15.43;;;9.32;;
63818;SDS011;49970;54.976;73.248;2023-03-17T09:13:01;21.10;;;9.20;;
63818;SDS011;49970;54.976;73.248;2023-03-17T09:15:41;18.70;;;9.90;;
63818;SDS011;49970;54.976;73.248;2023-03-17T09:18:07;20.75;;;10.68;;
63818;SDS011;49970;54.976;73.248;2023-03-17T09:20:35;15.50;;;8.93;;
63818;SDS011;49970;54.976;73.248;2023-03-17T09:23:04;22.27;;;9.60;;
63818;SDS011;49970;54.976;73.248;2023-03-17T09:25:35;15.00;;;8.32;;
63818;SDS011;49970;54.976;73.248;2023-03-17T09:28:03;22.75;;;9.75;;
63818;SDS011;49970;54.976;73.248;2023-03-17T09:30:31;17.98;;;9.43;;
63818;SDS011;49970;54.976;73.248;2023-03-17T09:32:58;18.38;;;8.82;;
63818;SDS011;49970;54.976;73.248;2023-03-17T09:35:25;19.15;;;9.57;;
63818;SDS011;49970;54.976;73.248;2023-03-17T09:37:56;21.52;;;9.40;;
63818;SDS011;49970;54.976;73.248;2023-03-17T09:40:31;14.35;;;9.30;;
63818;SDS011;49970;54.976;73.248;2023-03-17T09:49:00;23.15;;;10.02;;
63818;SDS011;49970;54.976;73.248;2023-03-17T09:51:26;22.65;;;11.68;;
63818;SDS011;49970;54.976;73.248;2023-03-17T09:53:58;16.60;;;9.45;;
63818;SDS011;49970;54.976;73.248;2023-03-17T09:56:27;17.05;;;9.27;;
63818;SDS011;49970;54.976;73.248;2023-03-17T09:58:58;19.30;;;9.48;;
63818;SDS011;49970;54.976;73.248;2023-03-17T10:01:40;18.67;;;8.75;;
63818;SDS011;49970;54.976;73.248;2023-03-17T10:04:12;18.58;;;8.95;;
63818;SDS011;49970;54.976;73.248;2023-03-17T10:06:41;16.20;;;9.40;;
63818;SDS011;49970;54.976;73.248;2023-03-17T10:09:23;14.15;;;9.70;;
63818;SDS011;49970;54.976;73.248;2023-03-17T10:17:20;16.70;;;9.07;;
63818;SDS011;49970;54.976;73.248;2023-03-17T10:20:16;16.02;;;8.60;;
63818;SDS011;49970;54.976;73.248;2023-03-17T10:22:51;16.87;;;9.03;;
63818;SDS011;49970;54.976;73.248;2023-03-17T10:25:23;15.52;;;8.82;;
63818;SDS011;49970;54.976;73.248;2023-03-17T10:30:49;14.60;;;8.63;;
63818;SDS011;49970;54.976;73.248;2023-03-17T10:33:21;13.10;;;9.40;;
63818;SDS011;49970;54.976;73.248;2023-03-17T10:35:47;15.63;;;9.85;;
63818;SDS011;49970;54.976;73.248;2023-03-17T10:38:17;20.42;;;10.05;;
63818;SDS011;49970;54.976;73.248;2023-03-17T10:40:59;12.93;;;10.48;;
63818;SDS011;49970;54.976;73.248;2023-03-17T10:43:34;17.85;;;11.60;;
63818;SDS011;49970;54.976;73.248;2023-03-17T10:46:06;24.20;;;11.38;;
63818;SDS011;49970;54.976;73.248;2023-03-17T10:48:50;21.45;;;10.75;;
63818;SDS011;49970;54.976;73.248;2023-03-17T10:51:32;17.08;;;12.38;;
63818;SDS011;49970;54.976;73.248;2023-03-17T10:54:17;16.13;;;11.50;;
63818;SDS011;49970;54.976;73.248;2023-03-17T10:56:54;14.30;;;11.48;;
63818;SDS011;49970;54.976;73.248;2023-03-17T10:59:56;26.90;;;12.68;;
63818;SDS011;49970;54.976;73.248;2023-03-17T11:02:35;17.92;;;11.45;;
63818;SDS011;49970;54.976;73.248;2023-03-17T11:05:40;15.38;;;11.48;;
63818;SDS011;49970;54.976;73.248;2023-03-17T11:08:08;17.52;;;11.20;;
63818;SDS011;49970;54.976;73.248;2023-03-17T11:10:44;22.13;;;12.65;;
63818;SDS011;49970;54.976;73.248;2023-03-17T11:13:16;18.90;;;11.65;;
63818;SDS011;49970;54.976;73.248;2023-03-17T11:15:47;17.77;;;10.70;;
63818;SDS011;49970;54.976;73.248;2023-03-17T11:28:43;18.17;;;11.68;;
63818;SDS011;49970;54.976;73.248;2023-03-17T11:31:36;16.85;;;12.27;;
63818;SDS011;49970;54.976;73.248;2023-03-17T11:34:26;15.75;;;11.68;;
63818;SDS011;49970;54.976;73.248;2023-03-17T11:37:01;18.95;;;11.93;;
63818;SDS011;49970;54.976;73.248;2023-03-17T11:39:35;16.48;;;13.25;;
63818;SDS011;49970;54.976;73.248;2023-03-17T11:42:18;23.73;;;13.43;;
63818;SDS011;49970;54.976;73.248;2023-03-17T11:45:21;18.95;;;14.02;;
63818;SDS011;49970;54.976;73.248;2023-03-17T11:50:44;24.65;;;15.80;;
63818;SDS011;49970;54.976;73.248;2023-03-17T11:56:17;18.73;;;15.18;;
63818;SDS011;49970;54.976;73.248;2023-03-17T11:58:47;23.95;;;14.73;;
63818;SDS011;49970;54.976;73.248;2023-03-17T12:01:23;24.52;;;12.70;;
63818;SDS011;49970;54.976;73.248;2023-03-17T12:04:09;19.52;;;15.25;;
63818;SDS011;49970;54.976;73.248;2023-03-17T12:06:48;25.70;;;15.75;;
63818;SDS011;49970;54.976;73.248;2023-03-17T12:09:36;20.65;;;16.13;;
63818;SDS011;49970;54.976;73.248;2023-03-17T12:12:19;19.00;;;14.00;;
63818;SDS011;49970;54.976;73.248;2023-03-17T12:14:57;17.27;;;14.38;;
63818;SDS011;49970;54.976;73.248;2023-03-17T12:17:33;26.00;;;14.40;;
63818;SDS011;49970;54.976;73.248;2023-03-17T12:23:16;20.73;;;14.93;;
63818;SDS011;49970;54.976;73.248;2023-03-17T12:26:13;22.20;;;15.10;;
63818;SDS011;49970;54.976;73.248;2023-03-17T12:32:11;20.73;;;15.68;;
63818;SDS011;49970;54.976;73.248;2023-03-17T12:34:51;24.60;;;16.40;;
63818;SDS011;49970;54.976;73.248;2023-03-17T12:37:20;27.20;;;17.30;;
63818;SDS011;49970;54.976;73.248;2023-03-17T12:42:44;28.65;;;16.10;;
63818;SDS011;49970;54.976;73.248;2023-03-17T12:48:17;26.05;;;16.65;;
63818;SDS011;49970;54.976;73.248;2023-03-17T12:53:53;26.13;;;16.92;;
63818;SDS011;49970;54.976;73.248;2023-03-17T12:56:25;31.52;;;18.25;;
63818;SDS011;49970;54.976;73.248;2023-03-17T12:59:03;32.85;;;20.08;;
63818;SDS011;49970;54.976;73.248;2023-03-17T13:01:36;37.95;;;20.38;;
63818;SDS011;49970;54.976;73.248;2023-03-17T13:09:40;28.77;;;18.45;;
63818;SDS011;49970;54.976;73.248;2023-03-17T13:20:51;38.60;;;21.83;;
63818;SDS011;49970;54.976;73.248;2023-03-17T13:23:46;34.83;;;22.48;;
63818;SDS011;49970;54.976;73.248;2023-03-17T13:29:36;40.45;;;20.10;;
63818;SDS011;49970;54.976;73.248;2023-03-17T13:34:48;27.90;;;19.52;;
63818;SDS011;49970;54.976;73.248;2023-03-17T13:37:32;31.33;;;20.25;;
63818;SDS011;49970;54.976;73.248;2023-03-17T13:42:51;30.38;;;21.05;;
63818;SDS011;49970;54.976;73.248;2023-03-17T13:45:41;37.85;;;23.55;;
63818;SDS011;49970;54.976;73.248;2023-03-17T13:48:26;41.08;;;23.58;;
63818;SDS011;49970;54.976;73.248;2023-03-17T13:53:57;43.03;;;25.55;;
63818;SDS011;49970;54.976;73.248;2023-03-17T13:59:17;40.55;;;25.52;;
63818;SDS011;49970;54.976;73.248;2023-03-17T14:01:55;45.35;;;24.58;;
63818;SDS011;49970;54.976;73.248;2023-03-17T14:04:31;40.40;;;24.15;;
63818;SDS011;49970;54.976;73.248;2023-03-17T14:07:19;40.90;;;24.85;;
63818;SDS011;49970;54.976;73.248;2023-03-17T14:09:55;41.13;;;24.45;;
63818;SDS011;49970;54.976;73.248;2023-03-17T14:12:27;46.72;;;26.10;;
63818;SDS011;49970;54.976;73.248;2023-03-17T14:18:07;45.38;;;26.63;;
63818;SDS011;49970;54.976;73.248;2023-03-17T14:20:57;45.33;;;26.40;;
63818;SDS011;49970;54.976;73.248;2023-03-17T14:23:59;43.47;;;26.05;;
63818;SDS011;49970;54.976;73.248;2023-03-17T14:26:27;50.35;;;28.83;;
63818;SDS011;49970;54.976;73.248;2023-03-17T14:28:59;60.30;;;32.33;;
63818;SDS011;49970;54.976;73.248;2023-03-17T14:31:28;69.33;;;36.17;;
63818;SDS011;49970;54.976;73.248;2023-03-17T14:33:58;67.88;;;37.85;;
63818;SDS011;49970;54.976;73.248;2023-03-17T14:36:31;79.65;;;38.00;;
63818;SDS011;49970;54.976;73.248;2023-03-17T14:39:03;85.70;;;39.05;;
63818;SDS011;49970;54.976;73.248;2023-03-17T14:41:35;65.40;;;34.53;;
63818;SDS011;49970;54.976;73.248;2023-03-17T14:44:01;56.20;;;31.75;;
63818;SDS011;49970;54.976;73.248;2023-03-17T14:46:34;43.47;;;26.65;;
63818;SDS011;49970;54.976;73.248;2023-03-17T14:49:08;32.72;;;22.45;;
63818;SDS011;49970;54.976;73.248;2023-03-17T14:52:54;41.08;;;23.67;;
63818;SDS011;49970;54.976;73.248;2023-03-17T14:56:50;27.50;;;19.73;;
63818;SDS011;49970;54.976;73.248;2023-03-17T15:00:45;25.98;;;18.02;;
63818;SDS011;49970;54.976;73.248;2023-03-17T15:04:37;26.42;;;20.05;;
63818;SDS011;49970;54.976;73.248;2023-03-17T15:08:51;24.92;;;19.48;;
63818;SDS011;49970;54.976;73.248;2023-03-17T15:11:27;32.53;;;22.85;;
63818;SDS011;49970;54.976;73.248;2023-03-17T15:14:18;38.15;;;25.63;;
63818;SDS011;49970;54.976;73.248;2023-03-17T15:16:51;47.80;;;27.80;;
63818;SDS011;49970;54.976;73.248;2023-03-17T15:19:21;34.70;;;26.35;;
63818;SDS011;49970;54.976;73.248;2023-03-17T15:22:03;25.50;;;19.80;;
63818;SDS011;49970;54.976;73.248;2023-03-17T15:25:02;23.38;;;17.30;;
63818;SDS011;49970;54.976;73.248;2023-03-17T15:27:45;31.05;;;16.45;;
63818;SDS011;49970;54.976;73.248;2023-03-17T15:30:15;53.83;;;18.15;;
63818;SDS011;49970;54.976;73.248;2023-03-17T15:32:50;66.95;;;17.42;;
63818;SDS011;49970;54.976;73.248;2023-03-17T15:35:24;81.63;;;17.75;;
63818;SDS011;49970;54.976;73.248;2023-03-17T15:37:58;50.40;;;17.95;;
63818;SDS011;49970;54.976;73.248;2023-03-17T15:40:28;94.15;;;18.88;;
63818;SDS011;49970;54.976;73.248;2023-03-17T15:42:57;93.30;;;18.55;;
63818;SDS011;49970;54.976;73.248;2023-03-17T15:45:27;147.18;;;19.83;;
63818;SDS011;49970;54.976;73.248;2023-03-17T15:48:12;154.00;;;19.58;;
63818;SDS011;49970;54.976;73.248;2023-03-17T15:50:52;50.20;;;19.63;;
63818;SDS011;49970;54.976;73.248;2023-03-17T15:53:22;79.15;;;19.67;;
63818;SDS011;49970;54.976;73.248;2023-03-17T15:55:57;200.63;;;24.52;;
63818;SDS011;49970;54.976;73.248;2023-03-17T15:58:27;234.20;;;22.50;;
63818;SDS011;49970;54.976;73.248;2023-03-17T16:00:58;219.35;;;21.02;;
63818;SDS011;49970;54.976;73.248;2023-03-17T16:03:38;136.27;;;19.38;;
63818;SDS011;49970;54.976;73.248;2023-03-17T16:06:12;129.43;;;19.83;;
63818;SDS011;49970;54.976;73.248;2023-03-17T16:08:42;70.63;;;20.20;;
63818;SDS011;49970;54.976;73.248;2023-03-17T16:11:21;43.85;;;20.73;;